createdAt,value
2023-04-19T00:03:30.793Z,11.98
2023-04-19T00:08:34.413Z,12.00
2023-04-19T00:13:37.951Z,12.32
2023-04-19T00:18:43.145Z,12.90
2023-04-19T00:23:46.466Z,13.73
2023-04-19T00:28:49.827Z,13.50
2023-04-19T00:33:54.491Z,14.20
2023-04-19T00:38:57.831Z,14.50
2023-04-19T00:44:01.611Z,14.60
2023-04-19T00:49:06.735Z,15.82
2023-04-19T00:54:10.512Z,16.15
2023-04-19T00:59:15.754Z,17.60
2023-04-19T01:04:20.777Z,16.43
2023-04-19T01:09:24.407Z,17.27
2023-04-19T01:14:27.775Z,17.42
2023-04-19T01:19:32.822Z,17.38
2023-04-19T01:24:37.625Z,17.85
2023-04-19T01:29:41.237Z,19.63
2023-04-19T01:34:44.656Z,17.05
2023-04-19T01:39:49.385Z,19.38
2023-04-19T01:44:52.678Z,17.98
2023-04-19T01:49:56.514Z,21.00
2023-04-19T01:55:01.649Z,22.23
2023-04-19T02:00:08.809Z,18.67
2023-04-19T02:05:17.762Z,18.92
2023-04-19T02:10:22.794Z,18.27
2023-04-19T02:15:26.236Z,19.63
2023-04-19T02:20:29.994Z,21.08
2023-04-19T02:25:34.756Z,19.47
2023-04-19T02:30:38.390Z,19.90
2023-04-19T02:35:41.714Z,19.17
2023-04-19T02:40:46.447Z,19.27
2023-04-19T02:45:49.864Z,21.02
2023-04-19T02:50:53.241Z,19.43
2023-04-19T02:55:58.770Z,20.33
2023-04-19T03:01:02.526Z,20.53
2023-04-19T03:06:06.438Z,19.67
2023-04-19T03:11:12.578Z,21.88
2023-04-19T03:16:16.455Z,20.67
2023-04-19T03:21:21.155Z,19.77
2023-04-19T03:26:30.872Z,21.17
2023-04-19T03:31:34.692Z,25.20
2023-04-19T03:36:38.272Z,25.73
2023-04-19T03:41:43.327Z,24.30
2023-04-19T03:46:57.164Z,24.55
2023-04-19T03:52:04.877Z,24.20
2023-04-19T03:57:14.723Z,23.52
2023-04-19T04:02:19.314Z,25.73
2023-04-19T04:07:23.332Z,24.33
2023-04-19T04:12:29.114Z,23.10
2023-04-19T04:17:34.295Z,22.53
2023-04-19T04:22:43.663Z,22.73
2023-04-19T04:27:52.366Z,22.88
2023-04-19T04:32:59.166Z,24.13
2023-04-19T04:38:14.061Z,22.85
2023-04-19T04:43:24.231Z,23.45
2023-04-19T04:48:28.271Z,23.50
2023-04-19T04:53:31.724Z,23.48
2023-04-19T04:58:38.106Z,23.35
2023-04-19T05:03:44.923Z,21.67
2023-04-19T05:08:53.426Z,21.55
2023-04-19T05:14:07.001Z,23.95
2023-04-19T05:19:11.285Z,21.97
2023-04-19T05:24:20.980Z,23.73
2023-04-19T05:29:26.849Z,25.17
2023-04-19T05:34:31.835Z,21.40
2023-04-19T05:39:36.829Z,21.90
2023-04-19T05:44:41.499Z,20.33
2023-04-19T05:49:45.142Z,19.48
2023-04-19T05:55:06.153Z,17.58
2023-04-19T06:00:13.606Z,18.00
2023-04-19T06:05:17.123Z,16.75
2023-04-19T06:10:20.704Z,16.70
2023-04-19T06:15:26.018Z,17.50
2023-04-19T06:20:29.704Z,15.93
2023-04-19T06:25:33.193Z,14.48
2023-04-19T06:30:37.982Z,14.37
2023-04-19T06:35:41.376Z,13.32
2023-04-19T06:40:44.666Z,14.15
2023-04-19T06:45:49.402Z,13.38
2023-04-19T06:50:52.738Z,13.48
2023-04-19T06:56:01.107Z,13.68
2023-04-19T07:01:06.695Z,14.10
2023-04-19T07:06:09.939Z,14.45
2023-04-19T07:11:13.165Z,14.27
2023-04-19T07:16:17.793Z,13.75
2023-04-19T07:21:21.146Z,14.90
2023-04-19T07:26:24.412Z,16.77
2023-04-19T07:31:29.484Z,16.73
2023-04-19T07:36:35.018Z,18.07
2023-04-19T07:41:38.345Z,18.50
2023-04-19T07:46:44.300Z,20.00
2023-04-19T07:51:47.576Z,19.60
2023-04-19T07:56:51.288Z,20.92
2023-04-19T08:01:55.986Z,21.60
2023-04-19T08:06:59.654Z,20.58
2023-04-19T08:12:02.971Z,17.05
2023-04-19T08:17:23.946Z,17.92
2023-04-19T08:22:29.332Z,15.85
2023-04-19T08:27:32.547Z,16.58
2023-04-19T08:32:37.297Z,16.50
2023-04-19T08:37:40.584Z,15.03
2023-04-19T08:42:44.040Z,15.23
2023-04-19T08:48:00.061Z,14.73
2023-04-19T08:53:23.230Z,13.80
2023-04-19T08:58:45.690Z,13.63
2023-04-19T09:09:33.237Z,13.37
2023-04-19T09:14:57.866Z,13.75
2023-04-19T09:20:07.133Z,13.32
2023-04-19T09:35:41.401Z,13.10
2023-04-19T09:40:47.731Z,12.70
2023-04-19T09:45:51.110Z,13.38
2023-04-19T09:51:01.336Z,13.73
2023-04-19T09:56:12.886Z,12.88
2023-04-19T10:01:17.460Z,13.50
2023-04-19T10:11:37.195Z,12.52
2023-04-19T10:16:40.917Z,11.00
2023-04-19T10:21:47.345Z,11.50
2023-04-19T10:27:11.494Z,8.30
2023-04-19T10:32:15.102Z,8.80
2023-04-19T10:37:24.995Z,8.70
2023-04-19T10:43:11.011Z,10.32
2023-04-19T10:48:34.151Z,11.00
2023-04-19T10:53:52.947Z,10.65
2023-04-19T10:59:24.369Z,10.70
2023-04-19T11:05:11.540Z,10.30
2023-04-19T11:10:30.210Z,11.35
2023-04-19T11:15:33.476Z,11.32
2023-04-19T11:20:36.701Z,12.32
2023-04-19T11:25:41.906Z,11.82
2023-04-19T11:30:45.390Z,12.70
2023-04-19T11:35:48.616Z,12.37
2023-04-19T11:41:01.429Z,11.75
2023-04-19T11:46:07.417Z,11.55
2023-04-19T11:51:11.297Z,9.77
2023-04-19T11:56:16.891Z,10.30
2023-04-19T12:01:21.189Z,9.48
2023-04-19T12:06:25.828Z,9.13
2023-04-19T12:11:45.207Z,8.48
2023-04-19T12:17:03.630Z,8.02
2023-04-19T12:22:14.807Z,7.97
2023-04-19T12:27:20.327Z,8.80
2023-04-19T12:32:23.729Z,7.00
2023-04-19T12:37:27.512Z,8.35
2023-04-19T12:42:32.189Z,8.60
2023-04-19T12:47:35.438Z,6.72
2023-04-19T12:52:38.676Z,5.80
2023-04-19T12:57:43.625Z,5.50
2023-04-19T13:02:48.502Z,6.27
2023-04-19T13:07:52.043Z,6.25
2023-04-19T13:12:57.228Z,6.10
2023-04-19T13:18:00.518Z,5.50
2023-04-19T13:23:03.743Z,6.10
2023-04-19T13:28:08.632Z,5.93
2023-04-19T13:33:11.971Z,6.63
2023-04-19T13:38:15.350Z,6.18
2023-04-19T13:43:19.942Z,6.93
2023-04-19T13:48:23.207Z,7.13
2023-04-19T13:53:29.207Z,6.22
2023-04-19T13:58:33.938Z,6.40
2023-04-19T14:03:37.295Z,5.95
2023-04-19T14:08:40.639Z,8.43
2023-04-19T14:13:45.438Z,8.43
2023-04-19T14:18:48.697Z,10.73
2023-04-19T14:23:51.968Z,7.45
2023-04-19T14:28:56.598Z,9.32
2023-04-19T14:34:00.630Z,8.13
2023-04-19T14:39:03.900Z,8.77
2023-04-19T14:44:08.516Z,10.27
2023-04-19T14:49:11.811Z,11.10
2023-04-19T14:54:15.173Z,6.77
2023-04-19T14:59:19.904Z,6.70
2023-04-19T15:04:23.366Z,4.80
2023-04-19T15:09:26.733Z,4.82
2023-04-19T15:14:31.401Z,4.43
2023-04-19T15:19:34.730Z,7.00
2023-04-19T15:24:38.007Z,4.32
2023-04-19T15:29:42.668Z,4.40
2023-04-19T15:34:46.135Z,4.53
2023-04-19T15:39:50.340Z,4.90
2023-04-19T15:44:55.070Z,4.90
2023-04-19T15:49:59.030Z,4.78
2023-04-19T15:55:03.753Z,4.83
2023-04-19T16:00:10.321Z,4.85
2023-04-19T16:05:17.315Z,4.47
2023-04-19T16:10:21.161Z,5.27
2023-04-19T16:15:26.294Z,5.35
2023-04-19T16:25:34.857Z,6.10
2023-04-19T16:30:40.264Z,5.18
2023-04-19T16:35:45.295Z,2.97
2023-04-19T16:40:49.558Z,2.60
2023-04-19T16:45:54.799Z,2.60
2023-04-19T16:50:58.145Z,2.60
2023-04-19T16:56:03.720Z,2.30
2023-04-19T17:01:09.859Z,3.27
2023-04-19T17:06:15.347Z,2.80
2023-04-19T17:11:18.563Z,2.63
2023-04-19T17:16:23.191Z,3.07
2023-04-19T17:21:27.601Z,3.03
2023-04-19T17:26:30.879Z,3.58
2023-04-19T17:31:35.511Z,3.47
2023-04-19T17:36:38.903Z,4.00
2023-04-19T17:41:43.979Z,6.05
2023-04-19T17:46:48.789Z,5.60
2023-04-19T17:51:53.216Z,5.50
2023-04-19T17:56:59.453Z,7.50
2023-04-19T18:02:04.717Z,7.23
2023-04-19T18:07:08.076Z,6.03
2023-04-19T18:12:11.427Z,5.25
2023-04-19T18:17:16.080Z,5.15
2023-04-19T18:22:19.475Z,4.72
2023-04-19T18:27:22.728Z,4.33
2023-04-19T18:32:28.780Z,3.70
2023-04-19T18:37:32.262Z,3.23
2023-04-19T18:42:35.661Z,3.30
2023-04-19T18:47:40.394Z,4.47
2023-04-19T18:52:43.703Z,2.85
2023-04-19T18:57:47.038Z,2.90
2023-04-19T19:02:52.897Z,2.83
2023-04-19T19:07:56.729Z,2.70
2023-04-19T19:13:00.179Z,2.50
2023-04-19T19:18:05.711Z,2.78
2023-04-19T19:23:09.036Z,2.63
2023-04-19T19:28:12.574Z,2.90
2023-04-19T19:33:17.926Z,2.70
2023-04-19T19:38:21.170Z,2.95
2023-04-19T19:43:24.551Z,3.47
2023-04-19T19:48:30.370Z,3.85
2023-04-19T19:53:34.017Z,4.25
2023-04-19T19:58:49.445Z,4.10
2023-04-19T20:03:57.311Z,4.13
2023-04-19T20:09:01.468Z,5.07
2023-04-19T20:14:04.906Z,4.60
2023-04-19T20:19:11.781Z,6.60
2023-04-19T20:24:15.318Z,7.30
2023-04-19T20:29:18.787Z,6.50
2023-04-19T20:34:23.592Z,8.65
2023-04-19T20:39:26.923Z,8.43
2023-04-19T20:44:30.211Z,8.32
2023-04-19T20:49:34.876Z,7.35
2023-04-19T20:54:38.954Z,8.33
2023-04-19T20:59:42.278Z,11.37
2023-04-19T21:04:46.985Z,11.27
2023-04-19T21:09:50.297Z,12.40
2023-04-19T21:14:53.705Z,8.90
2023-04-19T21:19:58.345Z,7.10
2023-04-19T21:25:01.630Z,6.53
2023-04-19T21:35:10.598Z,5.57
2023-04-19T21:50:22.638Z,5.90
2023-04-19T21:55:26.105Z,6.50
2023-04-19T22:10:37.891Z,6.95
2023-04-19T22:15:42.932Z,7.28
2023-04-19T22:20:49.908Z,7.22
2023-04-19T22:25:53.317Z,10.88
2023-04-19T22:30:57.083Z,9.50
2023-04-19T22:36:01.820Z,9.15
2023-04-19T22:41:05.865Z,8.83
2023-04-19T22:46:09.295Z,8.13
2023-04-19T22:51:14.072Z,7.82
2023-04-19T22:56:17.911Z,7.17
2023-04-19T23:01:21.221Z,7.40
2023-04-19T23:06:26.017Z,7.10
2023-04-19T23:11:30.017Z,6.53
2023-04-19T23:16:33.460Z,7.40
2023-04-19T23:26:41.376Z,8.02
2023-04-19T23:31:44.709Z,7.73
